createdAt,value
2018-12-29T00:00:23.255Z,4.70
2018-12-29T00:05:26.583Z,6.97
2018-12-29T00:10:29.888Z,8.00
2018-12-29T00:15:33.188Z,6.40
2018-12-29T00:20:36.531Z,7.20
2018-12-29T00:25:40.970Z,7.77
2018-12-29T00:30:44.273Z,2.63
2018-12-29T00:35:47.872Z,2.53
2018-12-29T00:40:51.161Z,4.13
2018-12-29T00:45:54.467Z,3.70
2018-12-29T00:50:57.775Z,5.70
2018-12-29T00:56:01.138Z,5.53
2018-12-29T01:01:04.210Z,8.63
2018-12-29T01:06:07.551Z,7.73
2018-12-29T01:11:10.856Z,6.93
2018-12-29T01:16:14.166Z,6.00
2018-12-29T01:21:17.648Z,1.90
2018-12-29T01:26:20.997Z,4.00
2018-12-29T01:31:24.295Z,6.83
2018-12-29T01:36:27.751Z,5.57
2018-12-29T01:41:31.076Z,8.80
2018-12-29T01:46:34.491Z,5.63
2018-12-29T01:51:37.816Z,6.30
2018-12-29T01:56:41.134Z,6.72
2018-12-29T02:01:44.595Z,4.67
2018-12-29T02:06:47.928Z,6.50
2018-12-29T02:11:51.263Z,10.63
2018-12-29T02:16:54.304Z,7.87
2018-12-29T02:21:57.607Z,8.10
2018-12-29T02:27:00.907Z,4.67
2018-12-29T02:32:04.244Z,8.00
2018-12-29T02:37:07.608Z,9.87
2018-12-29T02:42:11.088Z,5.40
2018-12-29T02:47:14.443Z,7.83
2018-12-29T02:52:17.896Z,4.00
2018-12-29T02:57:21.189Z,4.10
2018-12-29T03:02:24.495Z,8.10
2018-12-29T03:07:28.044Z,6.03
2018-12-29T03:12:31.466Z,5.10
2018-12-29T03:17:34.769Z,5.03
2018-12-29T03:22:38.248Z,5.63
2018-12-29T03:27:41.556Z,5.43
2018-12-29T03:32:44.871Z,6.13
2018-12-29T03:37:48.183Z,5.60
2018-12-29T03:42:51.496Z,5.13
2018-12-29T03:47:54.933Z,2.63
2018-12-29T03:52:58.248Z,4.30
2018-12-29T03:58:01.548Z,3.07
2018-12-29T04:03:04.990Z,4.17
2018-12-29T04:08:08.297Z,5.95
2018-12-29T04:13:11.606Z,7.40
2018-12-29T04:18:15.012Z,2.73
2018-12-29T04:23:18.317Z,4.75
2018-12-29T04:28:21.618Z,4.27
2018-12-29T04:33:24.912Z,4.37
2018-12-29T04:38:28.227Z,6.37
2018-12-29T04:43:31.563Z,5.30
2018-12-29T04:48:34.865Z,5.33
2018-12-29T04:53:37.884Z,4.10
2018-12-29T04:58:41.176Z,4.03
2018-12-29T05:03:44.476Z,5.67
2018-12-29T05:08:47.769Z,3.47
2018-12-29T05:13:51.071Z,5.40
2018-12-29T05:18:54.456Z,2.97
2018-12-29T05:23:57.859Z,5.63
2018-12-29T05:29:01.263Z,6.33
2018-12-29T05:34:04.693Z,5.13
2018-12-29T05:39:07.984Z,5.47
2018-12-29T05:44:11.410Z,5.80
2018-12-29T05:49:14.718Z,6.63
2018-12-29T05:54:18.133Z,4.23
2018-12-29T05:59:21.439Z,3.80
2018-12-29T06:04:24.806Z,4.07
2018-12-29T06:09:28.063Z,5.07
2018-12-29T06:14:31.473Z,4.23
2018-12-29T06:19:34.764Z,3.50
2018-12-29T06:24:38.063Z,3.87
2018-12-29T06:29:41.527Z,2.47
2018-12-29T06:34:44.823Z,5.17
2018-12-29T06:39:48.252Z,4.73
2018-12-29T06:44:51.569Z,4.45
2018-12-29T06:49:54.944Z,4.93
2018-12-29T06:54:58.386Z,4.97
2018-12-29T07:00:01.704Z,2.93
2018-12-29T07:05:05.259Z,4.60
2018-12-29T07:10:08.736Z,3.37
2018-12-29T07:15:12.240Z,4.77
2018-12-29T07:20:15.784Z,4.30
2018-12-29T07:25:21.225Z,5.10
2018-12-29T07:30:25.548Z,4.30
2018-12-29T07:35:28.955Z,5.47
2018-12-29T07:40:32.384Z,7.57
2018-12-29T07:45:35.696Z,5.77
2018-12-29T07:50:38.727Z,4.57
2018-12-29T07:55:42.131Z,4.73
2018-12-29T08:00:45.505Z,4.90
2018-12-29T08:05:48.931Z,4.10
2018-12-29T08:10:52.366Z,7.28
2018-12-29T08:15:55.744Z,6.70
2018-12-29T08:20:59.216Z,4.90
2018-12-29T08:26:02.613Z,6.60
2018-12-29T08:31:06.051Z,6.53
2018-12-29T08:36:09.638Z,5.83
2018-12-29T08:41:13.057Z,4.17
2018-12-29T08:46:16.540Z,6.67
2018-12-29T08:51:19.841Z,6.87
2018-12-29T08:56:23.296Z,7.33
2018-12-29T09:01:26.680Z,6.13
2018-12-29T09:06:30.003Z,5.63
2018-12-29T09:11:33.435Z,7.40
2018-12-29T09:16:36.780Z,5.43
2018-12-29T09:21:40.183Z,5.40
2018-12-29T09:26:43.706Z,7.70
2018-12-29T09:31:47.189Z,6.70
2018-12-29T09:36:50.677Z,5.70
2018-12-29T09:41:53.983Z,4.20
2018-12-29T09:46:57.344Z,8.27
2018-12-29T09:52:00.667Z,5.27
2018-12-29T09:57:04.233Z,7.97
2018-12-29T10:02:07.795Z,5.93
2018-12-29T10:07:11.361Z,6.63
2018-12-29T10:12:14.877Z,6.43
2018-12-29T10:17:18.212Z,6.70
2018-12-29T10:22:21.639Z,8.30
2018-12-29T10:27:25.143Z,8.10
2018-12-29T10:32:28.616Z,6.40
2018-12-29T10:37:32.025Z,6.20
2018-12-29T10:42:35.468Z,6.13
2018-12-29T10:47:38.774Z,6.17
2018-12-29T10:52:42.107Z,7.03
2018-12-29T10:57:45.590Z,6.47
2018-12-29T11:02:48.915Z,8.97
2018-12-29T11:07:52.417Z,2.40
2018-12-29T11:12:55.839Z,9.30
2018-12-29T11:17:59.149Z,6.50
2018-12-29T11:23:02.656Z,7.57
2018-12-29T11:28:05.988Z,7.43
2018-12-29T11:35:06.854Z,23.30
2018-12-29T11:35:30.071Z,25.43
2018-12-29T11:35:53.494Z,26.12
2018-12-29T11:36:16.790Z,23.45
2018-12-29T11:36:40.171Z,19.17
2018-12-29T11:37:03.460Z,18.67
2018-12-29T11:37:26.758Z,20.60
2018-12-29T11:38:14.822Z,17.95
2018-12-29T11:39:02.139Z,17.67
2018-12-29T11:39:25.479Z,18.35
2018-12-29T11:39:48.737Z,19.07
2018-12-29T11:44:51.951Z,12.60
2018-12-29T11:56:07.268Z,20.12
2018-12-29T12:01:10.745Z,11.90
2018-12-29T12:06:14.189Z,11.47
2018-12-29T12:07:28.693Z,12.70
2018-12-29T12:08:02.029Z,14.25
2018-12-29T12:08:35.481Z,16.10
2018-12-29T12:09:08.941Z,14.67
2018-12-29T12:09:42.331Z,15.65
2018-12-29T12:10:15.708Z,14.68
2018-12-29T12:10:49.161Z,14.47
2018-12-29T12:11:22.557Z,14.93
2018-12-29T12:11:55.948Z,15.70
2018-12-29T12:16:59.934Z,11.73
2018-12-29T12:22:03.406Z,9.13
2018-12-29T12:27:06.774Z,7.43
2018-12-29T12:32:10.375Z,8.87
2018-12-29T12:37:14.135Z,9.40
2018-12-29T12:42:17.492Z,8.10
2018-12-29T12:47:20.959Z,7.17
2018-12-29T12:52:24.338Z,8.73
2018-12-29T12:57:27.897Z,6.85
2018-12-29T13:02:31.336Z,9.13
2018-12-29T13:07:34.804Z,6.80
2018-12-29T13:12:38.237Z,6.70
2018-12-29T13:17:41.649Z,6.77
2018-12-29T13:22:45.164Z,9.43
2018-12-29T13:27:48.569Z,5.45
2018-12-29T13:32:52.160Z,10.23
2018-12-29T13:37:55.634Z,9.07
2018-12-29T13:42:59.113Z,9.30
2018-12-29T13:48:02.761Z,7.83
2018-12-29T13:53:06.358Z,6.57
2018-12-29T13:58:09.852Z,7.70
2018-12-29T14:03:13.316Z,8.50
2018-12-29T14:08:16.737Z,6.60
2018-12-29T14:13:20.305Z,7.33
2018-12-29T14:18:28.113Z,5.87
2018-12-29T14:23:27.381Z,7.07
2018-12-29T14:28:31.047Z,9.17
2018-12-29T14:33:34.663Z,7.50
2018-12-29T14:38:38.164Z,7.73
2018-12-29T14:43:41.571Z,7.37
2018-12-29T14:48:45.305Z,7.47
2018-12-29T14:53:48.884Z,9.55
2018-12-29T14:58:52.420Z,8.17
2018-12-29T15:03:55.984Z,7.67
2018-12-29T15:08:59.516Z,8.97
2018-12-29T15:14:03.084Z,8.00
2018-12-29T15:19:06.735Z,7.43
2018-12-29T15:24:10.432Z,9.50
2018-12-29T15:29:13.880Z,9.17
2018-12-29T15:34:17.407Z,9.10
2018-12-29T15:39:20.915Z,10.45
2018-12-29T15:44:24.529Z,9.30
2018-12-29T15:49:28.058Z,10.43
2018-12-29T15:54:31.572Z,10.20
2018-12-29T15:59:35.092Z,7.60
2018-12-29T16:04:38.595Z,8.63
2018-12-29T16:09:42.175Z,12.50
2018-12-29T16:14:45.960Z,9.00
2018-12-29T16:19:49.508Z,8.73
2018-12-29T16:24:52.994Z,8.83
2018-12-29T16:29:56.464Z,8.87
2018-12-29T16:35:00.245Z,8.70
2018-12-29T16:40:03.477Z,8.53
2018-12-29T16:45:08.083Z,7.43
2018-12-29T16:50:11.520Z,9.87
2018-12-29T16:55:15.064Z,9.00
2018-12-29T17:00:18.615Z,10.60
2018-12-29T17:05:22.155Z,9.03
2018-12-29T17:10:25.660Z,11.60
2018-12-29T17:15:29.088Z,8.17
2018-12-29T17:20:32.484Z,9.63
2018-12-29T17:25:35.921Z,7.15
2018-12-29T17:30:40.347Z,8.10
2018-12-29T17:35:43.729Z,8.53
2018-12-29T17:40:47.245Z,11.00
2018-12-29T17:45:50.624Z,9.37
2018-12-29T17:50:54.231Z,7.80
2018-12-29T17:55:57.576Z,10.53
2018-12-29T18:01:01.075Z,10.70
2018-12-29T18:06:04.470Z,10.87
2018-12-29T18:11:08.051Z,10.43
2018-12-29T18:16:11.469Z,8.70
2018-12-29T18:21:15.070Z,9.07
2018-12-29T18:26:18.473Z,6.00
2018-12-29T18:31:21.877Z,5.93
2018-12-29T18:36:25.373Z,8.70
2018-12-29T18:41:28.818Z,11.20
2018-12-29T18:46:33.024Z,10.00
2018-12-29T18:51:36.437Z,10.03
2018-12-29T18:56:45.533Z,6.92
2018-12-29T19:01:43.447Z,9.23
2018-12-29T19:06:48.185Z,9.30
2018-12-29T19:11:50.263Z,8.57
2018-12-29T19:16:53.740Z,8.10
2018-12-29T19:21:57.148Z,5.87
2018-12-29T19:27:00.584Z,7.87
2018-12-29T19:32:04.174Z,7.20
2018-12-29T19:37:07.844Z,6.37
2018-12-29T19:42:11.262Z,9.20
2018-12-29T19:47:14.770Z,8.27
2018-12-29T19:52:18.202Z,7.57
2018-12-29T19:57:21.596Z,6.70
2018-12-29T20:02:25.013Z,7.83
2018-12-29T20:07:28.441Z,7.77
2018-12-29T20:12:31.930Z,7.70
2018-12-29T20:17:35.348Z,8.83
2018-12-29T20:22:38.826Z,8.47
2018-12-29T20:27:42.192Z,6.63
2018-12-29T20:32:45.584Z,6.53
2018-12-29T20:37:49.066Z,5.87
2018-12-29T20:42:52.429Z,6.83
2018-12-29T20:47:55.948Z,5.63
2018-12-29T20:52:59.594Z,5.10
2018-12-29T20:58:03.149Z,7.20
2018-12-29T21:03:06.542Z,8.00
2018-12-29T21:08:09.936Z,7.20
2018-12-29T21:13:13.487Z,7.30
2018-12-29T21:18:16.894Z,8.83
2018-12-29T21:23:20.425Z,7.33
2018-12-29T21:28:23.824Z,6.50
2018-12-29T21:33:27.212Z,5.87
2018-12-29T21:38:30.724Z,6.67
2018-12-29T21:43:34.217Z,6.00
2018-12-29T21:48:37.674Z,6.60
2018-12-29T21:53:41.107Z,6.13
2018-12-29T21:58:44.609Z,5.50
2018-12-29T22:03:48.136Z,5.63
2018-12-29T22:08:51.555Z,5.00
2018-12-29T22:13:55.065Z,5.83
2018-12-29T22:18:58.480Z,6.03
2018-12-29T22:24:01.857Z,5.50
2018-12-29T22:29:05.304Z,5.43
2018-12-29T22:34:08.781Z,4.43
2018-12-29T22:39:12.181Z,5.40
2018-12-29T22:44:16.614Z,5.80
2018-12-29T22:49:19.884Z,5.43
2018-12-29T22:54:23.240Z,6.80
2018-12-29T22:59:26.658Z,3.73
2018-12-29T23:04:29.980Z,6.20
2018-12-29T23:09:33.344Z,5.92
2018-12-29T23:14:36.688Z,5.30
2018-12-29T23:19:39.996Z,4.20
2018-12-29T23:24:43.335Z,4.53
2018-12-29T23:29:46.603Z,2.57
2018-12-29T23:34:49.945Z,1.87
2018-12-29T23:39:53.241Z,2.07
2018-12-29T23:44:56.504Z,2.03
2018-12-29T23:49:59.958Z,2.03
2018-12-29T23:55:03.285Z,2.60
